Time;durP1;ratioP1;P1;durP2;ratioP2;P2;SDS_P1;SDS_P2;PMS_P1;PMS_P2;Temp;Humidity;BMP_temperature;BMP_pressure;BME280_temperature;BME280_humidity;BME280_pressure;Samples;Min_cycle;Max_cycle;Signal;HPM_P1;HPM_P2
2024/01/21 00:00:12;;;;;;;5.25;1.80;;;2.60;99.90;;;;;;4980612;28;20092;-18
2024/01/21 00:02:38;;;;;;;4.45;2.15;;;2.70;99.90;;;;;;4998904;28;20236;-19
2024/01/21 00:05:04;;;;;;;3.08;1.45;;;2.70;99.90;;;;;;5014503;28;20057;-20
2024/01/21 00:07:30;;;;;;;2.50;1.25;;;2.70;99.90;;;;;;5015322;28;20037;-20
2024/01/21 00:09:56;;;;;;;3.30;1.30;;;4.90;99.90;;;;;;4982808;28;20552;-20
2024/01/21 00:12:21;;;;;;;2.35;1.10;;;2.70;99.90;;;;;;5013189;28;20414;-19
2024/01/21 00:14:47;;;;;;;2.50;1.30;;;2.70;99.90;;;;;;4991586;28;20840;-19
2024/01/21 00:17:13;;;;;;;3.83;1.30;;;0.00;99.90;;;;;;4995215;28;20465;-20
2024/01/21 00:19:39;;;;;;;2.70;1.20;;;2.70;99.90;;;;;;5009607;28;20258;-19
2024/01/21 00:22:05;;;;;;;2.33;1.33;;;1.80;99.90;;;;;;4996364;28;20037;-18
2024/01/21 00:24:31;;;;;;;4.20;1.70;;;2.60;99.90;;;;;;5012451;28;20045;-20
2024/01/21 00:26:57;;;;;;;3.17;1.43;;;2.00;99.90;;;;;;5010600;28;20058;-19
2024/01/21 00:29:23;;;;;;;5.25;2.00;;;2.70;99.90;;;;;;5001380;28;20030;-19
2024/01/21 00:31:48;;;;;;;3.20;1.70;;;2.70;99.90;;;;;;5012096;28;20030;-21
2024/01/21 00:34:14;;;;;;;4.30;2.10;;;2.70;99.90;;;;;;5001357;28;20433;-21
2024/01/21 00:36:40;;;;;;;6.43;2.50;;;2.70;99.90;;;;;;5014052;28;20045;-21
2024/01/21 00:39:06;;;;;;;4.27;1.77;;;2.80;99.90;;;;;;5007016;28;20042;-22
2024/01/21 00:41:31;;;;;;;3.75;1.90;;;0.80;99.90;;;;;;5008175;28;20033;-20
2024/01/21 00:43:57;;;;;;;3.07;1.40;;;2.80;99.90;;;;;;4992488;28;20059;-19
2024/01/21 00:46:23;;;;;;;3.50;1.50;;;2.80;99.90;;;;;;4995912;28;20256;-20
2024/01/21 00:48:49;;;;;;;3.63;1.73;;;2.80;99.90;;;;;;4999742;28;20212;-20
2024/01/21 00:51:15;;;;;;;3.80;1.80;;;2.90;99.90;;;;;;5013368;28;20168;-20
2024/01/21 00:53:40;;;;;;;3.97;1.60;;;2.90;99.90;;;;;;4996791;28;20111;-20
2024/01/21 00:56:06;;;;;;;2.67;1.33;;;2.90;99.90;;;;;;4999548;28;20125;-20
2024/01/21 00:58:32;;;;;;;3.93;1.90;;;2.90;99.90;;;;;;5009453;28;20063;-18
2024/01/21 01:00:57;;;;;;;5.55;2.22;;;2.90;99.90;;;;;;4999587;28;20117;-20
2024/01/21 01:03:24;;;;;;;4.30;1.80;;;3.00;99.90;;;;;;5013428;28;20064;-19
2024/01/21 01:05:50;;;;;;;7.38;2.80;;;3.00;99.90;;;;;;4999287;28;20038;-19
2024/01/21 01:08:17;;;;;;;5.63;2.50;;;3.00;99.90;;;;;;5012681;28;20380;-19
2024/01/21 01:10:44;;;;;;;4.20;1.85;;;3.00;99.90;;;;;;5012627;28;20339;-19
2024/01/21 01:13:09;;;;;;;3.70;1.95;;;3.00;99.90;;;;;;4993653;28;20325;-18
2024/01/21 01:15:35;;;;;;;6.47;2.70;;;3.10;99.90;;;;;;5011021;28;20116;-18
2024/01/21 01:18:02;;;;;;;5.85;2.47;;;3.10;99.90;;;;;;4980025;28;20034;-20
2024/01/21 01:20:27;;;;;;;6.03;2.58;;;1.10;99.90;;;;;;5003195;28;20186;-20
2024/01/21 01:22:53;;;;;;;8.60;3.47;;;3.20;99.90;;;;;;5012564;28;20484;-20
2024/01/21 01:25:19;;;;;;;5.55;2.45;;;3.30;99.90;;;;;;5009914;28;20081;-20
2024/01/21 01:27:45;;;;;;;5.68;2.63;;;2.50;99.90;;;;;;5012571;28;20161;-18
2024/01/21 01:30:11;;;;;;;4.90;2.40;;;3.40;99.90;;;;;;5014923;28;20038;-20
2024/01/21 01:32:37;;;;;;;5.47;2.55;;;6.40;99.90;;;;;;4997635;28;20045;-20
2024/01/21 01:35:04;;;;;;;4.47;2.13;;;3.40;99.90;;;;;;5012535;28;20520;-20
2024/01/21 01:37:30;;;;;;;6.50;2.90;;;3.40;99.90;;;;;;5004631;28;20041;-19
2024/01/21 01:39:56;;;;;;;5.95;2.88;;;3.40;99.90;;;;;;5015116;28;20293;-18
2024/01/21 01:42:22;;;;;;;4.95;2.30;;;5.60;99.90;;;;;;5003550;28;20439;-23
2024/01/21 01:44:48;;;;;;;5.87;2.53;;;3.70;99.90;;;;;;5014708;28;20522;-23
2024/01/21 01:47:13;;;;;;;5.38;2.30;;;6.50;99.90;;;;;;5015248;28;20048;-23
2024/01/21 01:49:41;;;;;;;6.77;2.97;;;3.60;99.90;;;;;;5012891;28;20030;-26
2024/01/21 01:52:10;;;;;;;7.05;2.92;;;5.70;99.90;;;;;;4994648;28;20513;-19
2024/01/21 01:54:37;;;;;;;6.90;2.95;;;3.70;99.90;;;;;;5016235;28;20090;-19
2024/01/21 01:57:05;;;;;;;6.53;2.80;;;2.10;99.90;;;;;;5014826;28;20500;-19
2024/01/21 01:59:33;;;;;;;5.95;2.97;;;3.70;99.90;;;;;;5016794;28;20086;-19
2024/01/21 02:01:59;;;;;;;8.00;3.83;;;3.50;99.90;;;;;;5013205;28;20052;-19
2024/01/21 02:04:25;;;;;;;7.90;2.90;;;3.70;99.90;;;;;;4995236;28;20041;-20
2024/01/21 02:06:52;;;;;;;5.43;2.90;;;3.80;99.90;;;;;;5015476;28;20033;-20
2024/01/21 02:09:18;;;;;;;6.70;2.43;;;3.80;99.90;;;;;;5000645;28;20095;-20
2024/01/21 02:11:43;;;;;;;4.68;2.45;;;3.70;99.90;;;;;;5013903;28;20260;-19
2024/01/21 02:14:10;;;;;;;4.35;2.38;;;3.70;99.90;;;;;;5013041;28;20034;-20
2024/01/21 02:16:36;;;;;;;5.83;2.80;;;3.80;99.90;;;;;;5015962;28;20029;-19
2024/01/21 02:19:06;;;;;;;4.88;2.40;;;3.80;99.90;;;;;;5003177;28;20042;-19
2024/01/21 02:21:32;;;;;;;4.65;2.10;;;3.80;99.90;;;;;;5012188;28;20104;-22
2024/01/21 02:23:57;;;;;;;5.53;2.50;;;3.80;99.90;;;;;;5002623;28;20046;-19
2024/01/21 02:26:23;;;;;;;6.15;2.92;;;3.80;99.90;;;;;;5012279;28;20041;-19
2024/01/21 02:28:49;;;;;;;5.30;2.60;;;3.80;99.90;;;;;;5012027;28;20077;-19
2024/01/21 02:31:15;;;;;;;5.45;2.67;;;3.80;99.90;;;;;;5014940;28;20042;-18
2024/01/21 02:33:40;;;;;;;4.47;2.27;;;3.80;99.90;;;;;;5013991;28;20651;-19
2024/01/21 02:36:06;;;;;;;5.80;2.45;;;3.80;99.90;;;;;;5009611;28;20046;-19
2024/01/21 02:38:32;;;;;;;4.93;2.33;;;3.80;99.90;;;;;;4997550;28;20037;-19
2024/01/21 02:40:58;;;;;;;6.30;2.53;;;3.80;99.90;;;;;;5013956;28;20080;-19
2024/01/21 02:43:23;;;;;;;6.53;2.88;;;3.80;99.90;;;;;;5012821;28;20037;-20
2024/01/21 02:45:49;;;;;;;6.20;2.80;;;3.80;99.90;;;;;;5014122;28;20033;-19
2024/01/21 02:48:14;;;;;;;7.07;2.90;;;3.80;99.90;;;;;;5014445;28;20673;-19
2024/01/21 02:50:40;;;;;;;5.93;2.60;;;4.30;99.90;;;;;;5011127;28;20057;-20
2024/01/21 02:53:06;;;;;;;5.77;2.50;;;3.80;99.90;;;;;;5014716;28;20183;-22
2024/01/21 02:55:32;;;;;;;6.13;2.60;;;3.80;99.90;;;;;;5011260;28;20501;-22
2024/01/21 02:57:57;;;;;;;4.87;2.10;;;3.80;99.90;;;;;;4995555;28;20670;-22
2024/01/21 03:00:23;;;;;;;4.25;2.00;;;3.80;99.90;;;;;;4994430;28;20045;-21
2024/01/21 03:02:50;;;;;;;5.17;2.43;;;5.90;99.90;;;;;;5002227;28;20064;-19
2024/01/21 03:05:16;;;;;;;5.55;2.33;;;3.80;99.90;;;;;;5013254;28;20033;-19
2024/01/21 03:07:42;;;;;;;5.60;2.60;;;3.80;99.90;;;;;;4996427;28;20357;-19
2024/01/21 03:10:07;;;;;;;5.37;2.40;;;3.80;99.90;;;;;;5011169;28;20136;-20
2024/01/21 03:12:36;;;;;;;4.95;2.22;;;3.80;99.90;;;;;;5014362;28;20124;-20
2024/01/21 03:15:02;;;;;;;6.13;2.77;;;3.80;99.90;;;;;;5014861;28;20124;-22
2024/01/21 03:17:28;;;;;;;4.93;2.10;;;3.80;99.90;;;;;;5000298;28;20033;-19
2024/01/21 03:19:54;;;;;;;4.00;1.88;;;3.80;99.90;;;;;;5013314;28;20036;-19
2024/01/21 03:22:19;;;;;;;4.20;1.97;;;3.80;99.90;;;;;;5003795;28;20920;-19
2024/01/21 03:24:45;;;;;;;5.88;2.47;;;3.80;99.90;;;;;;5011071;28;20029;-19
2024/01/21 03:27:11;;;;;;;3.80;1.77;;;6.60;99.90;;;;;;4998297;28;20073;-19
2024/01/21 03:29:37;;;;;;;4.60;2.13;;;3.80;99.90;;;;;;5013877;28;20036;-20
2024/01/21 03:32:03;;;;;;;5.47;2.53;;;2.70;99.90;;;;;;5014651;28;20699;-19
2024/01/21 03:34:29;;;;;;;6.03;2.40;;;3.80;99.90;;;;;;5011820;28;20042;-19
2024/01/21 03:36:54;;;;;;;4.65;2.22;;;3.80;99.90;;;;;;4996917;28;20056;-19
2024/01/21 03:39:20;;;;;;;5.57;2.10;;;3.80;99.90;;;;;;5012507;28;20444;-19
2024/01/21 03:41:47;;;;;;;4.65;2.05;;;3.80;99.90;;;;;;5015538;28;20046;-20
2024/01/21 03:44:13;;;;;;;5.85;2.70;;;3.80;99.90;;;;;;5013378;28;20060;-19
2024/01/21 03:46:39;;;;;;;6.30;2.90;;;3.90;99.90;;;;;;5008881;28;20089;-18
2024/01/21 03:49:05;;;;;;;5.25;2.60;;;3.80;99.90;;;;;;4997887;28;20034;-19
2024/01/21 03:51:30;;;;;;;6.97;3.00;;;3.90;99.90;;;;;;5014926;28;20128;-20
2024/01/21 03:53:56;;;;;;;7.53;3.75;;;3.90;99.90;;;;;;5009848;28;20133;-20
2024/01/21 03:56:22;;;;;;;7.63;3.40;;;4.00;99.90;;;;;;5014079;28;20073;-19
2024/01/21 03:58:48;;;;;;;5.28;2.80;;;4.00;99.90;;;;;;5012609;28;20041;-19
2024/01/21 04:01:13;;;;;;;5.23;2.30;;;4.00;99.90;;;;;;5002174;28;20029;-22
2024/01/21 04:03:39;;;;;;;5.35;2.60;;;4.10;99.90;;;;;;4993574;28;20095;-22
2024/01/21 04:06:05;;;;;;;5.53;2.63;;;4.10;99.90;;;;;;5013503;28;20037;-21
2024/01/21 04:08:31;;;;;;;8.17;3.50;;;4.10;99.90;;;;;;5012184;28;20053;-21
2024/01/21 04:10:57;;;;;;;6.45;3.20;;;4.20;99.90;;;;;;5013192;28;20517;-20
2024/01/21 04:13:22;;;;;;;5.70;2.90;;;4.20;99.90;;;;;;5012410;28;20065;-21
2024/01/21 04:15:49;;;;;;;5.60;2.50;;;4.50;99.90;;;;;;5013498;28;20048;-18
2024/01/21 04:18:14;;;;;;;6.43;2.70;;;4.30;99.90;;;;;;5012613;28;20421;-19
2024/01/21 04:20:40;;;;;;;7.30;3.40;;;4.30;99.90;;;;;;5011293;28;20038;-20
2024/01/21 04:23:06;;;;;;;4.75;2.55;;;4.30;99.90;;;;;;5008361;28;20038;-19
2024/01/21 04:25:32;;;;;;;6.43;3.40;;;4.30;99.90;;;;;;4994539;28;20119;-19
2024/01/21 04:27:57;;;;;;;6.07;2.90;;;4.30;99.90;;;;;;5009114;28;20053;-18
2024/01/21 04:30:23;;;;;;;7.30;3.60;;;4.30;99.90;;;;;;5008868;28;20517;-18
2024/01/21 04:32:49;;;;;;;7.13;3.57;;;4.40;99.90;;;;;;5013071;28;20060;-19
2024/01/21 04:35:14;;;;;;;7.53;2.97;;;4.40;99.90;;;;;;5010768;28;20556;-19
2024/01/21 04:37:40;;;;;;;7.37;3.60;;;4.40;99.90;;;;;;5014790;28;20029;-18
2024/01/21 04:40:06;;;;;;;7.47;3.25;;;4.40;99.90;;;;;;5000055;28;20041;-18
2024/01/21 04:42:32;;;;;;;8.07;3.90;;;4.30;99.90;;;;;;5012769;28;20034;-19
2024/01/21 04:44:58;;;;;;;8.03;3.60;;;4.30;99.90;;;;;;5013774;28;20390;-20
2024/01/21 04:47:24;;;;;;;8.30;4.18;;;4.30;99.90;;;;;;5009861;28;20076;-20
2024/01/21 04:49:49;;;;;;;8.37;4.27;;;4.40;99.90;;;;;;5014771;28;20045;-18
2024/01/21 04:52:15;;;;;;;7.38;3.85;;;4.50;99.90;;;;;;5011338;28;20528;-21
2024/01/21 04:54:41;;;;;;;6.10;3.33;;;4.30;99.90;;;;;;5015997;28;20489;-19
2024/01/21 04:57:07;;;;;;;6.30;2.97;;;4.30;99.90;;;;;;5013323;28;20034;-19
2024/01/21 04:59:32;;;;;;;7.70;3.60;;;4.30;99.90;;;;;;5013250;28;20041;-18
2024/01/21 05:01:58;;;;;;;8.40;4.00;;;4.30;99.90;;;;;;4994444;28;20414;-19
2024/01/21 05:04:24;;;;;;;7.27;3.10;;;4.30;99.90;;;;;;5014950;28;20048;-20
2024/01/21 05:06:49;;;;;;;6.53;3.58;;;4.30;99.90;;;;;;5017991;28;20505;-19
2024/01/21 05:09:15;;;;;;;8.67;3.33;;;4.30;99.90;;;;;;5020849;28;20628;-19
2024/01/21 05:11:41;;;;;;;4.93;2.35;;;6.00;99.90;;;;;;5004625;28;20576;-20
2024/01/21 05:14:06;;;;;;;7.10;3.00;;;4.30;99.90;;;;;;5015236;28;20034;-20
2024/01/21 05:16:32;;;;;;;7.40;3.05;;;4.30;99.90;;;;;;5014742;28;20037;-19
2024/01/21 05:18:58;;;;;;;8.13;3.70;;;4.30;99.90;;;;;;5013067;28;20509;-18
2024/01/21 05:21:23;;;;;;;6.07;3.05;;;4.20;99.90;;;;;;5014610;28;20112;-21
2024/01/21 05:23:51;;;;;;;7.30;3.23;;;4.30;99.90;;;;;;4988205;28;20399;-19
2024/01/21 05:26:17;;;;;;;6.07;2.80;;;4.30;99.90;;;;;;5018086;28;20147;-19
2024/01/21 05:28:44;;;;;;;6.57;3.08;;;4.20;99.90;;;;;;5003231;28;20293;-19
2024/01/21 05:31:10;;;;;;;5.75;2.83;;;4.20;99.90;;;;;;5012280;28;20033;-19
2024/01/21 05:33:36;;;;;;;6.93;2.90;;;4.20;99.90;;;;;;5013289;28;20071;-20
2024/01/21 05:36:02;;;;;;;5.00;2.53;;;4.20;99.90;;;;;;5014517;28;20497;-18
2024/01/21 05:38:27;;;;;;;5.63;2.60;;;4.20;99.90;;;;;;4999979;28;20526;-19
2024/01/21 05:40:53;;;;;;;5.22;2.50;;;4.20;99.90;;;;;;5017240;28;20964;-19
2024/01/21 05:43:19;;;;;;;7.65;2.88;;;4.20;99.90;;;;;;5015768;28;20041;-20
2024/01/21 05:45:45;;;;;;;5.27;2.77;;;4.20;99.90;;;;;;5013744;28;20480;-20
2024/01/21 05:48:11;;;;;;;5.00;2.50;;;4.20;99.90;;;;;;5016963;28;20528;-19
2024/01/21 05:50:36;;;;;;;5.77;2.70;;;4.20;99.90;;;;;;5014163;28;20544;-20
2024/01/21 05:53:05;;;;;;;4.78;2.30;;;4.20;99.90;;;;;;5016314;28;20045;-19
2024/01/21 05:55:32;;;;;;;5.22;2.58;;;4.10;99.90;;;;;;4998857;28;20139;-20
2024/01/21 05:57:57;;;;;;;5.32;2.60;;;3.00;99.90;;;;;;5018342;28;20037;-19
2024/01/21 06:00:23;;;;;;;6.77;3.47;;;4.10;99.90;;;;;;5002008;28;20374;-20
2024/01/21 06:02:50;;;;;;;5.85;3.08;;;4.10;99.90;;;;;;5015689;28;20034;-19
2024/01/21 06:05:16;;;;;;;6.33;3.17;;;4.10;99.90;;;;;;5016141;28;20750;-19
2024/01/21 06:07:41;;;;;;;6.95;3.17;;;4.10;99.90;;;;;;5015284;28;20048;-19
2024/01/21 06:10:08;;;;;;;6.80;3.23;;;4.10;99.90;;;;;;5002121;28;20129;-18
2024/01/21 06:12:33;;;;;;;7.90;3.67;;;4.10;99.90;;;;;;5015883;28;20038;-20
2024/01/21 06:14:59;;;;;;;5.75;2.92;;;4.20;99.90;;;;;;5002830;28;20045;-19
2024/01/21 06:17:25;;;;;;;8.00;3.80;;;4.20;99.90;;;;;;5012819;28;20029;-19
2024/01/21 06:19:51;;;;;;;5.72;2.72;;;4.20;99.90;;;;;;5002908;28;20552;-19
2024/01/21 06:22:16;;;;;;;6.47;2.50;;;4.20;99.90;;;;;;4996180;28;20029;-19
2024/01/21 06:24:42;;;;;;;5.03;2.42;;;7.10;99.90;;;;;;5014679;28;20586;-20
2024/01/21 06:27:08;;;;;;;4.67;2.27;;;6.90;99.90;;;;;;5015920;28;20551;-20
2024/01/21 06:29:33;;;;;;;5.88;2.60;;;4.30;99.90;;;;;;4999774;28;20030;-22
2024/01/21 06:31:59;;;;;;;5.17;2.60;;;4.30;99.90;;;;;;5016870;28;20037;-19
2024/01/21 06:34:25;;;;;;;5.80;2.65;;;4.40;99.90;;;;;;5015917;28;20042;-22
2024/01/21 06:36:50;;;;;;;4.77;2.20;;;4.40;99.90;;;;;;5015947;28;20119;-21
2024/01/21 06:39:16;;;;;;;5.03;2.30;;;4.40;99.90;;;;;;5001104;28;20036;-20
2024/01/21 06:41:42;;;;;;;4.93;2.40;;;4.40;99.90;;;;;;4999065;28;20069;-21
2024/01/21 06:44:08;;;;;;;5.47;2.60;;;4.40;99.90;;;;;;5003477;28;20034;-22
2024/01/21 06:46:34;;;;;;;4.73;1.97;;;4.50;99.90;;;;;;5017478;28;20064;-20
2024/01/21 06:49:00;;;;;;;5.40;2.53;;;4.50;99.90;;;;;;4999385;28;20095;-22
2024/01/21 06:51:32;;;;;;;5.40;2.90;;;4.50;99.90;;;;;;5013303;28;20270;-21
2024/01/21 06:54:03;;;;;;;6.30;2.70;;;3.30;99.90;;;;;;5013524;28;20473;-21
2024/01/21 06:56:28;;;;;;;5.22;2.30;;;4.50;99.90;;;;;;5012742;28;20544;-21
2024/01/21 06:58:54;;;;;;;5.93;2.60;;;4.50;99.90;;;;;;5015887;28;20334;-21
2024/01/21 07:01:20;;;;;;;5.30;2.77;;;4.50;99.90;;;;;;4999163;28;20252;-22
2024/01/21 07:03:46;;;;;;;6.22;3.10;;;4.50;99.90;;;;;;5015158;28;20113;-23
2024/01/21 07:06:12;;;;;;;6.03;2.67;;;4.50;99.90;;;;;;5014680;28;20029;-22
2024/01/21 07:08:40;;;;;;;6.40;2.92;;;4.50;99.90;;;;;;4995621;28;20034;-21
2024/01/21 07:11:09;;;;;;;5.65;2.38;;;4.50;99.90;;;;;;5013398;28;20045;-22
2024/01/21 07:13:35;;;;;;;4.88;2.00;;;4.60;99.90;;;;;;5014452;28;20034;-20
2024/01/21 07:16:01;;;;;;;5.47;2.80;;;4.50;99.90;;;;;;4986115;28;20050;-22
2024/01/21 07:18:26;;;;;;;4.30;2.33;;;4.50;99.90;;;;;;5014269;28;20037;-22
2024/01/21 07:20:52;;;;;;;4.78;2.50;;;4.50;99.90;;;;;;5000417;28;20700;-22
2024/01/21 07:23:18;;;;;;;5.77;2.60;;;4.50;99.90;;;;;;4997971;28;20059;-21
2024/01/21 07:25:44;;;;;;;4.00;2.17;;;4.50;99.90;;;;;;5012316;28;20283;-21
2024/01/21 07:28:11;;;;;;;4.28;2.10;;;4.50;99.90;;;;;;4983515;28;21144;-21
2024/01/21 07:30:36;;;;;;;4.28;1.88;;;4.50;99.90;;;;;;4995505;28;20038;-22
2024/01/21 07:33:03;;;;;;;4.07;2.20;;;4.40;99.90;;;;;;5009962;28;20069;-21
2024/01/21 07:35:29;;;;;;;3.90;1.92;;;4.40;99.90;;;;;;4993737;28;20042;-21
2024/01/21 07:37:54;;;;;;;5.45;2.10;;;4.40;99.90;;;;;;5014511;28;20053;-21
2024/01/21 07:40:20;;;;;;;5.60;2.90;;;4.40;99.90;;;;;;5012252;28;20160;-21
2024/01/21 07:42:46;;;;;;;5.15;2.10;;;4.40;99.90;;;;;;4995016;28;20112;-22
2024/01/21 07:45:12;;;;;;;5.40;2.50;;;4.40;99.90;;;;;;5016476;28;20033;-21
2024/01/21 07:47:38;;;;;;;5.07;2.63;;;4.40;99.90;;;;;;5010346;28;20038;-21
2024/01/21 07:50:07;;;;;;;4.83;2.77;;;4.50;99.90;;;;;;5014686;28;20113;-21
2024/01/21 07:52:33;;;;;;;5.73;2.80;;;4.50;99.90;;;;;;5013056;28;20338;-20
2024/01/21 07:54:58;;;;;;;7.13;3.58;;;2.60;99.90;;;;;;4994321;28;20069;-23
2024/01/21 07:57:24;;;;;;;6.90;3.30;;;4.60;99.90;;;;;;5015617;28;20033;-20
2024/01/21 07:59:50;;;;;;;5.82;3.15;;;4.70;99.90;;;;;;5015185;28;20076;-22
2024/01/21 08:02:16;;;;;;;6.40;3.22;;;4.80;99.90;;;;;;5014294;28;20535;-20
2024/01/21 08:04:42;;;;;;;5.60;2.80;;;4.80;99.90;;;;;;5013972;28;20061;-20
2024/01/21 08:07:08;;;;;;;5.32;2.80;;;4.90;99.90;;;;;;5000589;28;20398;-22
2024/01/21 08:09:34;;;;;;;6.70;2.72;;;4.90;99.90;;;;;;4964320;28;20308;-21
2024/01/21 08:12:00;;;;;;;7.27;3.37;;;5.00;99.90;;;;;;5014938;28;20478;-21
2024/01/21 08:14:26;;;;;;;5.95;2.92;;;5.10;99.90;;;;;;4998647;28;20097;-21
2024/01/21 08:16:52;;;;;;;5.10;2.88;;;5.10;99.90;;;;;;5010983;28;20046;-20
2024/01/21 08:19:19;;;;;;;6.43;3.55;;;5.20;99.90;;;;;;4994000;28;20509;-20
2024/01/21 08:21:46;;;;;;;6.57;3.55;;;5.20;99.90;;;;;;4984434;28;20049;-20
2024/01/21 08:24:12;;;;;;;5.97;3.50;;;5.30;99.90;;;;;;4993865;28;20091;-22
2024/01/21 08:26:38;;;;;;;7.00;3.78;;;5.30;99.90;;;;;;4999834;28;20029;-24
2024/01/21 08:29:04;;;;;;;6.85;3.60;;;5.40;99.90;;;;;;4993925;28;20068;-22
2024/01/21 08:31:30;;;;;;;5.40;2.67;;;5.40;99.90;;;;;;5012093;28;20494;-22
2024/01/21 08:33:56;;;;;;;6.05;3.10;;;5.40;99.90;;;;;;5011960;28;20040;-23
2024/01/21 08:36:21;;;;;;;6.22;3.30;;;5.40;99.90;;;;;;5014385;28;20045;-21
2024/01/21 08:38:47;;;;;;;8.63;4.33;;;5.40;99.90;;;;;;5015072;28;20068;-23
2024/01/21 08:41:13;;;;;;;6.85;3.05;;;5.40;99.90;;;;;;5016048;28;20040;-22
2024/01/21 08:43:39;;;;;;;6.83;3.20;;;5.50;99.90;;;;;;5016005;28;20135;-22
2024/01/21 08:46:04;;;;;;;6.20;3.25;;;5.40;99.90;;;;;;5020111;28;20061;-21
2024/01/21 08:48:30;;;;;;;6.27;3.23;;;5.50;99.90;;;;;;5016064;28;20037;-24
2024/01/21 08:50:56;;;;;;;6.28;3.00;;;5.40;99.90;;;;;;5014034;28;20041;-22
2024/01/21 08:53:22;;;;;;;7.03;3.40;;;5.50;99.90;;;;;;5006956;28;20038;-24
2024/01/21 08:55:48;;;;;;;6.70;3.23;;;5.50;99.90;;;;;;5017921;28;20175;-19
2024/01/21 08:58:14;;;;;;;7.10;3.30;;;5.50;99.90;;;;;;4991149;28;20528;-20
2024/01/21 09:00:39;;;;;;;6.50;3.30;;;5.50;99.90;;;;;;5018530;28;20034;-19
2024/01/21 09:03:05;;;;;;;4.63;2.65;;;5.50;99.90;;;;;;5001706;28;20053;-19
2024/01/21 09:05:31;;;;;;;5.32;2.80;;;5.50;99.90;;;;;;5018403;28;20042;-18
2024/01/21 09:07:57;;;;;;;5.30;3.00;;;5.60;99.90;;;;;;5016214;28;20033;-19
2024/01/21 09:10:22;;;;;;;5.72;2.97;;;5.60;99.90;;;;;;5018040;28;20436;-19
2024/01/21 09:12:48;;;;;;;5.93;2.83;;;5.60;99.90;;;;;;5017236;28;20049;-19
2024/01/21 09:15:14;;;;;;;6.05;3.20;;;5.60;99.90;;;;;;4999324;28;20594;-19
2024/01/21 09:17:41;;;;;;;6.63;3.37;;;5.70;99.90;;;;;;5013764;28;20417;-19
2024/01/21 09:20:07;;;;;;;6.47;3.10;;;5.70;99.90;;;;;;4999251;28;20489;-20
2024/01/21 09:22:33;;;;;;;6.38;3.22;;;5.70;99.90;;;;;;5015786;28;20445;-19
2024/01/21 09:24:59;;;;;;;6.23;3.07;;;5.80;99.90;;;;;;5001946;28;20137;-24
2024/01/21 09:27:25;;;;;;;5.82;2.80;;;5.80;99.90;;;;;;5019194;28;20104;-23
2024/01/21 09:29:50;;;;;;;5.72;2.90;;;5.80;99.90;;;;;;4987382;28;20039;-21
2024/01/21 09:32:17;;;;;;;5.40;2.80;;;5.80;99.90;;;;;;5015080;28;20030;-21
2024/01/21 09:34:43;;;;;;;4.63;2.60;;;5.90;99.90;;;;;;4996174;28;20449;-21
2024/01/21 09:37:09;;;;;;;6.95;3.20;;;6.00;99.90;;;;;;5016653;28;20038;-24
2024/01/21 09:39:35;;;;;;;6.18;3.28;;;6.00;99.90;;;;;;5017584;28;20137;-23
2024/01/21 09:42:07;;;;;;;5.00;2.80;;;6.00;99.90;;;;;;5014103;28;20476;-24
2024/01/21 09:44:33;;;;;;;5.40;2.50;;;6.00;99.90;;;;;;5016078;28;20036;-23
2024/01/21 09:47:00;;;;;;;6.23;3.10;;;6.10;99.90;;;;;;5016937;28;20033;-21
2024/01/21 09:49:27;;;;;;;5.90;2.97;;;5.70;99.90;;;;;;5016069;28;20275;-22
2024/01/21 09:51:54;;;;;;;6.85;3.10;;;6.20;99.90;;;;;;4998969;28;20315;-26
2024/01/21 09:54:22;;;;;;;4.97;2.47;;;6.20;99.90;;;;;;4995895;28;20107;-24
2024/01/21 09:56:48;;;;;;;6.80;3.60;;;6.30;99.90;;;;;;5001675;28;20037;-22
2024/01/21 09:59:15;;;;;;;5.80;3.10;;;6.30;99.90;;;;;;5016963;28;20259;-24
2024/01/21 10:01:41;;;;;;;7.30;3.27;;;6.40;99.90;;;;;;5001335;28;20683;-23
2024/01/21 10:04:08;;;;;;;6.05;3.00;;;6.40;99.90;;;;;;4998470;28;20100;-19
2024/01/21 10:06:35;;;;;;;5.53;2.90;;;6.50;99.90;;;;;;5016623;28;20327;-21
2024/01/21 10:09:30;;;;;;;6.13;3.30;;;6.50;99.90;;;;;;5016803;28;20438;-20
2024/01/21 10:11:57;;;;;;;7.30;3.28;;;6.60;99.90;;;;;;5005756;28;20723;-19
2024/01/21 10:14:26;;;;;;;5.90;3.10;;;6.70;99.90;;;;;;4983019;28;20157;-23
2024/01/21 10:16:53;;;;;;;5.97;2.63;;;6.80;99.90;;;;;;5012268;28;20121;-20
2024/01/21 10:19:33;;;;;;;5.25;3.00;;;6.80;99.90;;;;;;5015605;28;20532;-19
2024/01/21 10:22:09;;;;;;;7.03;3.58;;;6.90;99.90;;;;;;5014099;28;20429;-18
2024/01/21 10:24:39;;;;;;;7.25;3.50;;;6.90;99.90;;;;;;4996340;28;20034;-20
2024/01/21 10:27:09;;;;;;;8.17;3.60;;;7.00;99.90;;;;;;5003523;28;20115;-22
2024/01/21 10:29:38;;;;;;;5.53;3.10;;;7.10;99.90;;;;;;4996324;28;20065;-20
2024/01/21 10:32:04;;;;;;;5.53;3.03;;;7.20;99.90;;;;;;4996295;28;20095;-19
2024/01/21 10:34:30;;;;;;;6.93;3.08;;;7.30;99.90;;;;;;5015706;28;20099;-24
2024/01/21 10:37:03;;;;;;;8.17;4.00;;;7.30;99.90;;;;;;5003842;28;20042;-20
2024/01/21 10:39:32;;;;;;;6.57;3.70;;;7.40;99.90;;;;;;4995102;28;20153;-21
2024/01/21 10:41:59;;;;;;;5.43;3.03;;;7.50;99.90;;;;;;4994247;28;20505;-22
2024/01/21 10:44:27;;;;;;;5.68;3.17;;;7.50;99.90;;;;;;4996700;28;20042;-25
2024/01/21 10:46:54;;;;;;;6.22;3.10;;;7.60;99.90;;;;;;4995339;28;20042;-22
2024/01/21 10:49:20;;;;;;;6.30;3.30;;;7.70;99.90;;;;;;4995036;28;20038;-21
2024/01/21 10:51:47;;;;;;;5.32;3.28;;;7.70;99.90;;;;;;4980992;28;20033;-22
2024/01/21 10:54:15;;;;;;;5.45;2.85;;;7.80;99.90;;;;;;4992864;28;20124;-24
2024/01/21 10:56:42;;;;;;;6.85;3.75;;;7.80;99.90;;;;;;4994416;28;20524;-26
2024/01/21 10:59:09;;;;;;;7.00;3.60;;;7.80;99.90;;;;;;4995538;28;20029;-21
2024/01/21 11:01:35;;;;;;;5.37;2.93;;;7.90;99.90;;;;;;4994857;28;20026;-26
2024/01/21 11:04:11;;;;;;;6.18;3.28;;;8.00;99.90;;;;;;4996786;28;20568;-24
2024/01/21 11:06:41;;;;;;;6.40;3.60;;;8.00;99.90;;;;;;4993246;28;20031;-22
2024/01/21 11:09:08;;;;;;;6.95;3.63;;;8.10;99.90;;;;;;4994195;28;20062;-25
2024/01/21 11:11:44;;;;;;;5.55;3.10;;;8.10;99.90;;;;;;4975851;28;20042;-22
2024/01/21 11:14:35;;;;;;;7.97;3.47;;;8.20;99.90;;;;;;4995520;28;20069;-19
2024/01/21 11:17:07;;;;;;;6.88;3.40;;;8.20;99.90;;;;;;4987389;28;20045;-19
2024/01/21 11:19:52;;;;;;;4.97;2.80;;;8.30;99.90;;;;;;4995051;28;20041;-19
2024/01/21 11:22:23;;;;;;;7.70;3.80;;;8.30;99.90;;;;;;4977667;28;20041;-18
2024/01/21 11:24:54;;;;;;;6.32;3.20;;;8.30;99.90;;;;;;4994398;28;20675;-19
2024/01/21 11:27:24;;;;;;;5.63;3.00;;;8.40;99.90;;;;;;4996723;28;20030;-18
2024/01/21 11:29:58;;;;;;;6.13;3.03;;;8.30;99.90;;;;;;4994613;28;20100;-19
2024/01/21 11:32:26;;;;;;;6.68;3.20;;;8.30;99.90;;;;;;4977301;28;20141;-19
2024/01/21 11:34:52;;;;;;;5.93;3.30;;;8.40;99.90;;;;;;4979930;28;20038;-19
2024/01/21 11:37:18;;;;;;;6.75;3.03;;;8.40;99.90;;;;;;4973365;28;20053;-19
2024/01/21 11:39:45;;;;;;;6.23;2.77;;;8.40;99.90;;;;;;4982746;28;20029;-19
2024/01/21 11:42:11;;;;;;;5.35;2.90;;;8.40;99.90;;;;;;5011412;28;20026;-18
2024/01/21 11:44:39;;;;;;;5.07;2.80;;;8.40;99.90;;;;;;5000073;28;20366;-20
2024/01/21 11:47:06;;;;;;;4.15;2.45;;;8.30;99.90;;;;;;5014130;28;20075;-18
2024/01/21 11:49:34;;;;;;;5.20;2.80;;;10.10;99.90;;;;;;4992829;28;20080;-20
2024/01/21 11:52:05;;;;;;;7.28;3.35;;;8.30;99.90;;;;;;4995860;28;20075;-19
2024/01/21 11:54:31;;;;;;;7.43;3.58;;;8.30;99.90;;;;;;4998867;28;20512;-18
2024/01/21 11:56:57;;;;;;;5.10;2.72;;;8.30;99.90;;;;;;5013588;28;20065;-18
2024/01/21 11:59:24;;;;;;;5.72;2.97;;;8.20;99.90;;;;;;5000409;28;20088;-19
2024/01/21 12:01:50;;;;;;;6.70;3.07;;;8.20;99.90;;;;;;4994470;28;20432;-19
2024/01/21 12:04:16;;;;;;;5.85;3.25;;;8.20;99.90;;;;;;5014845;28;20032;-19
2024/01/21 12:06:45;;;;;;;8.27;4.72;;;8.20;99.90;;;;;;5010598;28;20551;-19
2024/01/21 12:09:11;;;;;;;6.78;3.85;;;8.20;99.90;;;;;;4997149;28;20694;-19
2024/01/21 12:11:38;;;;;;;7.47;4.20;;;8.20;99.90;;;;;;4997408;28;20117;-20
2024/01/21 12:14:06;;;;;;;6.60;3.85;;;8.10;99.90;;;;;;5008373;28;20095;-20
2024/01/21 12:16:33;;;;;;;6.70;3.45;;;8.20;99.90;;;;;;5013236;28;20049;-20
2024/01/21 12:19:00;;;;;;;6.10;3.50;;;8.10;99.90;;;;;;5012620;28;20389;-19
2024/01/21 12:21:31;;;;;;;7.25;4.13;;;8.10;99.90;;;;;;4999392;28;20443;-20
2024/01/21 12:24:04;;;;;;;7.47;4.17;;;8.10;99.90;;;;;;4992474;28;20034;-20
2024/01/21 12:26:30;;;;;;;6.00;3.17;;;8.10;99.90;;;;;;5009801;28;20038;-21
2024/01/21 12:29:00;;;;;;;7.93;3.70;;;8.10;99.90;;;;;;5010673;28;20037;-20
2024/01/21 12:31:33;;;;;;;6.47;3.72;;;8.10;99.90;;;;;;5013301;28;20037;-23
2024/01/21 12:34:01;;;;;;;7.05;3.72;;;8.20;99.90;;;;;;5013592;28;20492;-25
2024/01/21 12:36:30;;;;;;;7.10;3.87;;;8.20;99.90;;;;;;4997571;28;20040;-21
2024/01/21 12:38:57;;;;;;;7.25;3.60;;;8.30;99.90;;;;;;4975956;28;20068;-20
2024/01/21 12:41:23;;;;;;;5.88;3.40;;;8.20;99.90;;;;;;5013396;28;20042;-21
2024/01/21 12:43:52;;;;;;;5.53;3.00;;;8.30;99.90;;;;;;4996362;28;20481;-23
2024/01/21 12:46:20;;;;;;;5.50;3.20;;;8.30;99.90;;;;;;5010660;28;20482;-23
2024/01/21 12:48:49;;;;;;;7.30;3.80;;;8.30;99.90;;;;;;4996330;28;20104;-24
2024/01/21 12:51:17;;;;;;;6.75;2.97;;;8.30;99.90;;;;;;5014330;28;20044;-22
2024/01/21 12:53:47;;;;;;;6.53;3.35;;;7.70;99.90;;;;;;4995057;28;20444;-19